Time;durP1;ratioP1;P1;durP2;ratioP2;P2;SDS_P1;SDS_P2;PMS_P1;PMS_P2;Temp;Humidity;BMP_temperature;BMP_pressure;BME280_temperature;BME280_humidity;BME280_pressure;Samples;Min_cycle;Max_cycle;Signal;HPM_P1;HPM_P2
2022/07/20 00:01:41;;;;;;;;;25.25;24.25;;;;;26.34;100.00;101095.16;4944641;28;45362;-84
2022/07/20 00:04:06;;;;;;;;;25.75;24.75;;;;;26.22;100.00;101091.28;4940871;28;45320;-85
2022/07/20 00:06:32;;;;;;;;;30.67;28.33;;;;;25.97;100.00;101104.47;4942698;28;44788;-85
2022/07/20 00:11:47;;;;;;;;;22.75;22.75;;;;;25.72;100.00;101098.50;4941030;28;45456;-85
2022/07/20 00:14:14;;;;;;;;;28.67;27.67;;;;;25.71;100.00;101111.28;4928278;28;46916;-84
2022/07/20 00:16:39;;;;;;;;;28.00;27.00;;;;;25.74;100.00;101127.22;4923923;28;44754;-85
2022/07/20 00:19:08;;;;;;;;;31.00;28.50;;;;;25.67;100.00;101141.78;4921954;28;45297;-84
2022/07/20 00:21:34;;;;;;;;;31.25;26.50;;;;;25.70;100.00;101185.81;4920907;28;44935;-85
2022/07/20 00:23:59;;;;;;;;;22.25;20.25;;;;;25.63;100.00;101223.84;4922156;28;45439;-84
2022/07/20 00:26:25;;;;;;;;;23.00;23.00;;;;;25.63;100.00;101248.31;4922232;28;44775;-85
2022/07/20 00:28:50;;;;;;;;;26.00;22.50;;;;;25.61;100.00;101258.53;4921474;28;45501;-84
2022/07/20 00:31:17;;;;;;;;;24.00;22.25;;;;;25.46;100.00;101256.88;4919857;28;44937;-84
2022/07/20 00:33:46;;;;;;;;;23.50;23.25;;;;;25.33;100.00;101262.94;4924981;28;45234;-85
2022/07/20 00:36:17;;;;;;;;;32.50;27.75;;;;;25.06;100.00;101248.09;4927649;28;44655;-91
2022/07/20 00:38:43;;;;;;;;;22.25;21.75;;;;;24.79;100.00;101230.50;4928368;28;44704;-91
2022/07/20 00:41:09;;;;;;;;;29.25;23.75;;;;;24.74;100.00;101217.44;4933284;28;44932;-91
2022/07/20 00:44:05;;;;;;;;;19.00;18.75;;;;;24.63;100.00;101206.19;4929927;28;45118;-92
2022/07/20 00:46:38;;;;;;;;;30.00;26.50;;;;;24.50;100.00;101180.47;4933193;28;44633;-92
2022/07/20 00:49:06;;;;;;;;;26.50;25.75;;;;;24.32;100.00;101150.03;4930557;28;44577;-86
2022/07/20 00:51:32;;;;;;;;;30.75;29.25;;;;;24.24;100.00;101141.97;4922096;28;44941;-87
2022/07/20 00:53:59;;;;;;;;;34.00;30.50;;;;;24.15;100.00;101124.91;4923779;28;45148;-88
2022/07/20 00:56:24;;;;;;;;;24.75;22.75;;;;;24.02;100.00;101147.22;4925006;28;44776;-88
2022/07/20 00:58:50;;;;;;;;;33.00;30.67;;;;;23.91;100.00;101123.22;4928786;28;44703;-87
2022/07/20 01:01:16;;;;;;;;;26.75;26.75;;;;;23.72;100.00;101131.81;4929042;28;44745;-86
2022/07/20 01:03:43;;;;;;;;;31.25;28.50;;;;;23.56;100.00;101122.72;4927110;28;45218;-87
2022/07/20 01:06:09;;;;;;;;;31.75;27.25;;;;;23.36;100.00;101104.38;4926077;28;45141;-86
2022/07/20 01:08:34;;;;;;;;;40.00;32.00;;;;;23.21;100.00;101115.09;4926193;28;44836;-86
2022/07/20 01:11:01;;;;;;;;;29.25;27.25;;;;;23.16;100.00;101123.78;4924424;28;45395;-86
2022/07/20 01:13:28;;;;;;;;;32.67;31.00;;;;;23.17;100.00;101128.16;4934875;28;46859;-86
2022/07/20 01:15:54;;;;;;;;;40.33;33.00;;;;;23.16;100.00;101121.06;4948779;28;44796;-86
2022/07/20 01:18:19;;;;;;;;;30.00;28.00;;;;;23.20;100.00;101110.69;4943152;28;44873;-86
2022/07/20 01:20:51;;;;;;;;;43.00;34.67;;;;;23.23;100.00;101124.75;4949809;28;45434;-91
2022/07/20 01:23:26;;;;;;;;;43.67;33.67;;;;;23.30;100.00;101130.28;4954491;28;45456;-92
2022/07/20 01:25:52;;;;;;;;;37.00;34.33;;;;;23.36;100.00;101112.50;4954873;28;44590;-91
2022/07/20 01:28:21;;;;;;;;;35.67;32.67;;;;;23.40;100.00;101102.97;4970733;28;44594;-91
2022/07/20 01:30:47;;;;;;;;;45.00;38.00;;;;;23.38;100.00;101094.19;4948184;28;44876;-91
2022/07/20 01:33:12;;;;;;;;;46.67;36.00;;;;;23.39;100.00;101110.25;4945752;28;45078;-91
2022/07/20 01:35:38;;;;;;;;;49.00;39.00;;;;;23.48;100.00;101120.03;4959514;28;45375;-91
2022/07/20 01:38:10;;;;;;;;;53.00;41.67;;;;;23.53;100.00;101120.34;4943197;28;44725;-91
2022/07/20 01:40:36;;;;;;;;;50.00;40.00;;;;;23.50;100.00;101120.72;4946301;28;44769;-91
2022/07/20 01:43:07;;;;;;;;;52.33;43.00;;;;;23.53;100.00;101114.94;4947202;28;45320;-92
2022/07/20 01:45:34;;;;;;;;;50.67;40.00;;;;;23.60;100.00;101120.50;4947577;28;44641;-90
2022/07/20 01:48:02;;;;;;;;;55.67;45.33;;;;;23.64;100.00;101140.00;4945890;28;44727;-91
2022/07/20 01:50:28;;;;;;;;;56.00;44.33;;;;;23.66;100.00;101163.22;4945458;28;45566;-92
2022/07/20 01:52:54;;;;;;;;;47.67;34.33;;;;;23.65;100.00;101160.69;4964363;28;45424;-91
2022/07/20 01:55:20;;;;;;;;;58.67;45.00;;;;;23.65;100.00;101153.41;4950608;28;44735;-91
2022/07/20 01:57:51;;;;;;;;;53.33;43.67;;;;;23.69;100.00;101165.59;4948504;28;44740;-92
2022/07/20 02:00:17;;;;;;;;;50.00;43.33;;;;;23.75;100.00;101186.56;4948416;28;44891;-91
2022/07/20 02:02:43;;;;;;;;;55.67;45.00;;;;;23.79;100.00;101208.78;4945935;28;45320;-91
2022/07/20 02:05:11;;;;;;;;;57.33;45.33;;;;;23.87;100.00;101235.00;4951377;28;45058;-91
2022/07/20 02:07:41;;;;;;;;;59.00;47.00;;;;;23.93;100.00;101247.88;4967331;28;44665;-92
2022/07/20 02:10:13;;;;;;;;;58.33;46.67;;;;;23.97;100.00;101243.78;4928370;28;44893;-92
2022/07/20 02:13:04;;;;;;;;;56.33;46.33;;;;;23.93;100.00;101215.28;4929056;28;45104;-91
2022/07/20 02:18:31;;;;;;;;;54.00;43.33;;;;;23.88;100.00;101201.41;4938568;28;44599;-91
2022/07/20 02:21:02;;;;;;;;;55.00;46.67;;;;;23.77;100.00;101186.38;4918713;28;44960;-91
2022/07/20 02:23:34;;;;;;;;;61.00;45.33;;;;;23.71;100.00;101193.38;4919018;28;46989;-92
2022/07/20 02:26:02;;;;;;;;;66.00;50.67;;;;;23.73;100.00;101250.16;4926309;28;44669;-91
2022/07/20 02:28:31;;;;;;;;;66.00;50.00;;;;;23.73;100.00;101256.44;4909288;28;44655;-92
2022/07/20 02:31:03;;;;;;;;;60.33;50.33;;;;;23.76;100.00;101257.97;4927035;28;44828;-92
2022/07/20 02:33:37;;;;;;;;;65.00;50.00;;;;;23.75;100.00;101254.41;4910122;28;45212;-91
2022/07/20 02:36:09;;;;;;;;;59.33;47.67;;;;;23.72;100.00;101249.31;4909027;28;44599;-91
2022/07/20 02:38:34;;;;;;;;;64.67;50.67;;;;;23.72;100.00;101249.31;4927466;28;44683;-91
2022/07/20 02:41:03;;;;;;;;;66.00;51.00;;;;;23.70;100.00;101262.22;4910257;28;44999;-92
2022/07/20 02:43:31;;;;;;;;;68.00;54.00;;;;;23.68;100.00;101249.84;4909807;28;45181;-91
2022/07/20 02:46:01;;;;;;;;;61.00;49.00;;;;;23.69;100.00;101276.81;4916076;28;44752;-92
2022/07/20 02:48:33;;;;;;;;;62.67;50.00;;;;;23.66;100.00;101279.88;4913871;28;44818;-91
2022/07/20 02:50:59;;;;;;;;;65.67;53.00;;;;;23.67;100.00;101283.44;4909420;28;44891;-91
2022/07/20 02:53:25;;;;;;;;;59.67;48.00;;;;;23.55;100.00;101278.38;4925256;28;45248;-91
2022/07/20 02:55:56;;;;;;;;;62.33;48.67;;;;;23.47;100.00;101291.94;4926143;28;44680;-91
2022/07/20 02:58:34;;;;;;;;;67.33;54.67;;;;;23.50;100.00;101304.31;4926479;28;44801;-91
2022/07/20 03:01:03;;;;;;;;;57.67;47.00;;;;;23.42;100.00;101328.72;4910578;28;44906;-91
2022/07/20 03:03:29;;;;;;;;;55.67;45.67;;;;;23.47;100.00;101348.91;4911107;28;45009;-91
2022/07/20 03:06:00;;;;;;;;;60.67;46.33;;;;;23.48;100.00;101372.28;4926623;28;45163;-91
2022/07/20 03:08:35;;;;;;;;;64.33;52.33;;;;;23.45;100.00;101383.50;4918371;28;44703;-91
2022/07/20 03:11:04;;;;;;;;;69.67;52.33;;;;;23.41;100.00;101384.84;4946558;28;44792;-92
2022/07/20 03:13:36;;;;;;;;;65.67;51.33;;;;;23.39;100.00;101376.00;4931870;28;45016;-85
2022/07/20 03:16:02;;;;;;;;;64.00;51.33;;;;;23.28;100.00;101376.38;4923852;28;44820;-86
2022/07/20 03:18:27;;;;;;;;;65.33;50.67;;;;;23.28;100.00;101387.22;4927833;28;45247;-85
2022/07/20 03:20:53;;;;;;;;;62.00;50.33;;;;;23.34;100.00;101379.22;4922560;28;44968;-84
2022/07/20 03:23:18;;;;;;;;;60.33;49.33;;;;;23.34;100.00;101373.81;4923315;28;45311;-85
2022/07/20 03:25:44;;;;;;;;;59.33;45.33;;;;;23.34;100.00;101381.94;4927130;28;44957;-85
2022/07/20 03:28:09;;;;;;;;;61.67;47.67;;;;;23.37;100.00;101379.94;4929329;28;45363;-85
2022/07/20 03:30:34;;;;;;;;;66.33;52.33;;;;;23.41;100.00;101384.00;4926044;28;44864;-85
2022/07/20 03:33:00;;;;;;;;;59.67;48.00;;;;;23.35;100.00;101371.94;4922434;28;45400;-85
2022/07/20 03:35:26;;;;;;;;;60.33;49.67;;;;;23.33;100.00;101364.00;4923107;28;44865;-85
2022/07/20 03:37:51;;;;;;;;;63.33;50.00;;;;;23.28;100.00;101374.50;4923244;28;44922;-85
2022/07/20 03:40:17;;;;;;;;;62.33;48.67;;;;;23.32;100.00;101384.00;4922947;28;44860;-85
2022/07/20 03:42:42;;;;;;;;;31.67;28.00;;;;;23.38;100.00;101376.19;4922209;28;47337;-85
2022/07/20 03:45:08;;;;;;;;;55.00;46.33;;;;;23.34;100.00;101378.38;4925580;28;45151;-86
2022/07/20 03:47:37;;;;;;;;;59.33;46.33;;;;;23.32;100.00;101384.00;4927351;28;44783;-87
2022/07/20 03:50:03;;;;;;;;;62.00;49.33;;;;;23.27;100.00;101405.34;4926425;28;45303;-86
2022/07/20 03:52:35;;;;;;;;;56.33;47.00;;;;;23.24;100.00;101411.09;4926164;28;45396;-87
2022/07/20 03:55:01;;;;;;;;;53.67;44.33;;;;;23.21;100.00;101418.72;4927009;28;44673;-86
2022/07/20 03:57:26;;;;;;;;;59.00;48.00;;;;;23.16;100.00;101424.66;4924399;28;45236;-87
2022/07/20 03:59:52;;;;;;;;;58.33;46.00;;;;;23.11;100.00;101451.41;4923234;28;44783;-87
2022/07/20 04:02:17;;;;;;;;;53.33;44.33;;;;;23.05;100.00;101485.44;4922762;28;45105;-87
2022/07/20 04:04:43;;;;;;;;;49.67;38.33;;;;;22.97;100.00;101465.63;4923314;28;44709;-87
2022/07/20 04:07:08;;;;;;;;;52.00;42.33;;;;;22.88;100.00;101466.59;4922981;28;45326;-86
2022/07/20 04:09:49;;;;;;;;;50.33;42.67;;;;;22.82;100.00;101443.69;4922011;28;44856;-87
2022/07/20 04:12:20;;;;;;;;;48.67;39.67;;;;;22.79;100.00;101444.88;4924499;28;45281;-88
2022/07/20 04:14:47;;;;;;;;;46.33;39.33;;;;;22.76;100.00;101438.94;4926284;28;45453;-88
2022/07/20 04:17:13;;;;;;;;;48.00;39.33;;;;;22.70;100.00;101423.34;4923121;28;45256;-87
2022/07/20 04:19:39;;;;;;;;;31.33;31.00;;;;;22.49;100.00;101400.28;4921850;28;45460;-87
2022/07/20 04:22:05;;;;;;;;;31.33;28.67;;;;;22.45;100.00;101376.41;4922252;28;45080;-87
2022/07/20 04:24:31;;;;;;;;;37.67;34.00;;;;;22.41;100.00;101367.75;4922952;28;45262;-86
2022/07/20 04:27:03;;;;;;;;;33.25;28.25;;;;;22.29;100.00;101361.81;4922645;28;45395;-86
2022/07/20 04:29:28;;;;;;;;;35.33;32.67;;;;;22.25;100.00;101346.06;4922267;28;44778;-86
2022/07/20 04:31:54;;;;;;;;;30.50;26.75;;;;;22.20;100.00;101353.81;4922961;28;45372;-87
2022/07/20 04:34:20;;;;;;;;;31.00;27.00;;;;;22.17;100.00;101354.13;4924170;28;44613;-87
2022/07/20 04:36:45;;;;;;;;;33.00;30.75;;;;;22.16;100.00;101363.25;4926109;28;44720;-86
2022/07/20 04:39:11;;;;;;;;;29.75;28.50;;;;;22.14;100.00;101367.97;4923360;28;44677;-86
2022/07/20 04:41:37;;;;;;;;;32.50;28.25;;;;;22.12;100.00;101351.06;4921920;28;45285;-85
2022/07/20 04:44:07;;;;;;;;;30.25;26.00;;;;;22.08;100.00;101318.03;4931082;28;44630;-91
2022/07/20 04:46:36;;;;;;;;;35.00;28.00;;;;;22.06;100.00;101314.66;4919356;28;44750;-92
2022/07/20 04:49:07;;;;;;;;;29.00;28.25;;;;;22.04;100.00;101312.09;4918256;28;45239;-92
2022/07/20 04:51:36;;;;;;;;;27.75;25.50;;;;;22.05;100.00;101340.03;4949571;28;45106;-92
2022/07/20 04:54:04;;;;;;;;;26.75;24.50;;;;;21.99;100.00;101338.78;4945118;28;44585;-92
2022/07/20 04:56:33;;;;;;;;;25.25;22.25;;;;;21.97;100.00;101335.41;4934991;28;44737;-92
2022/07/20 04:59:01;;;;;;;;;27.00;26.50;;;;;21.96;100.00;101352.66;4935493;28;44864;-92
2022/07/20 05:01:27;;;;;;;;;30.00;28.33;;;;;21.92;100.00;101364.81;4951736;28;45267;-91
2022/07/20 05:03:53;;;;;;;;;29.75;28.25;;;;;21.89;100.00;101388.63;4939690;28;44626;-92
2022/07/20 05:06:19;;;;;;;;;31.25;26.25;;;;;21.90;100.00;101426.34;4948968;28;44648;-92
2022/07/20 05:08:44;;;;;;;;;29.50;26.75;;;;;21.89;100.00;101424.63;4947783;28;44829;-93
2022/07/20 05:11:33;;;;;;;;;28.50;23.25;;;;;21.85;100.00;101417.00;4915784;28;45270;-92
2022/07/20 05:14:12;;;;;;;;;29.00;27.50;;;;;21.74;100.00;101397.34;4934350;28;44717;-92
2022/07/20 05:16:38;;;;;;;;;30.25;25.75;;;;;21.63;100.00;101407.56;4954215;28;44634;-92
2022/07/20 05:19:04;;;;;;;;;27.25;24.25;;;;;21.60;100.00;101424.09;4949824;28;45011;-92
2022/07/20 05:21:30;;;;;;;;;31.50;24.25;;;;;21.61;100.00;101423.09;4931031;28;45274;-91
2022/07/20 05:24:00;;;;;;;;;25.75;24.50;;;;;21.52;100.00;101374.38;4930258;28;44811;-92
2022/07/20 05:26:31;;;;;;;;;29.00;27.75;;;;;21.36;100.00;101346.38;4932357;28;44673;-92
2022/07/20 05:29:00;;;;;;;;;27.00;23.00;;;;;21.22;100.00;101347.75;4916134;28;44790;-93
2022/07/20 05:31:31;;;;;;;;;24.75;21.25;;;;;21.16;100.00;101326.78;4933842;28;45187;-93
2022/07/20 05:33:59;;;;;;;;;26.75;24.50;;;;;21.23;100.00;101308.94;4949570;28;44891;-92
2022/07/20 05:36:25;;;;;;;;;23.25;21.75;;;;;21.23;100.00;101315.19;4947350;28;44625;-93
2022/07/20 05:38:54;;;;;;;;;22.00;19.25;;;;;21.29;100.00;101354.25;4931478;28;44867;-93
2022/07/20 05:41:23;;;;;;;;;24.25;23.00;;;;;21.23;100.00;101357.59;4949565;28;46751;-92
2022/07/20 05:43:49;;;;;;;;;27.50;22.25;;;;;21.23;100.00;101347.63;4947454;28;44768;-93
2022/07/20 05:46:15;;;;;;;;;22.00;19.75;;;;;21.23;100.00;101350.31;4947870;28;44634;-93
2022/07/20 05:48:40;;;;;;;;;25.75;22.25;;;;;21.28;100.00;101364.22;4937258;28;44883;-92
2022/07/20 05:51:06;;;;;;;;;22.50;21.00;;;;;21.31;100.00;101373.88;4942283;28;45102;-91
2022/07/20 05:53:32;;;;;;;;;29.00;22.25;;;;;21.36;100.00;101393.16;4952737;28;44598;-92
2022/07/20 05:55:57;;;;;;;;;21.50;20.00;;;;;21.42;100.00;101397.09;4910635;28;44665;-92
2022/07/20 05:58:23;;;;;;;;;24.00;22.50;;;;;21.44;100.00;101408.63;4936122;28;44871;-92
2022/07/20 06:00:49;;;;;;;;;21.00;18.50;;;;;21.47;100.00;101397.50;4953267;28;45199;-92
2022/07/20 06:03:14;;;;;;;;;25.00;21.75;;;;;21.49;100.00;101376.56;4940420;28;44764;-90
2022/07/20 06:05:40;;;;;;;;;19.25;19.25;;;;;21.51;100.00;101358.31;4943561;28;44766;-91
2022/07/20 06:08:05;;;;;;;;;23.00;21.75;;;;;21.52;100.00;101347.34;4952849;28;44943;-91
2022/07/20 06:10:33;;;;;;;;;18.00;16.75;;;;;21.58;100.00;101372.06;4929255;28;45191;-92
2022/07/20 06:13:00;;;;;;;;;24.00;19.50;;;;;21.62;100.00;101376.13;4935097;28;44700;-86
2022/07/20 06:15:26;;;;;;;;;23.25;23.25;;;;;21.64;100.00;101376.81;4937504;28;44830;-85
2022/07/20 06:17:54;;;;;;;;;22.50;21.25;;;;;21.71;100.00;101384.16;4939311;28;44868;-85
2022/07/20 06:20:20;;;;;;;;;21.50;21.50;;;;;21.72;100.00;101398.50;4923630;28;45453;-85
2022/07/20 06:22:47;;;;;;;;;24.50;22.00;;;;;21.68;100.00;101429.59;4922494;28;44739;-84
2022/07/20 06:25:16;;;;;;;;;23.75;21.25;;;;;21.68;100.00;101446.66;4925200;28;45466;-85
2022/07/20 06:27:42;;;;;;;;;23.50;22.25;;;;;21.64;100.00;101439.00;4921746;28;44966;-85
2022/07/20 06:30:12;;;;;;;;;24.00;20.25;;;;;21.60;100.00;101478.19;4920397;28;45064;-85
2022/07/20 06:32:38;;;;;;;;;24.00;19.75;;;;;21.57;100.00;101497.44;4920161;28;45418;-85
2022/07/20 06:35:07;;;;;;;;;18.00;17.50;;;;;21.52;100.00;101487.94;4920718;28;45260;-85
2022/07/20 06:37:33;;;;;;;;;21.75;19.75;;;;;21.49;100.00;101480.13;4924084;28;45289;-85
2022/07/20 06:39:58;;;;;;;;;23.75;22.25;;;;;21.51;100.00;101482.69;4924829;28;45211;-85
2022/07/20 06:42:23;;;;;;;;;24.00;21.75;;;;;21.53;100.00;101500.44;4925255;28;44741;-85
2022/07/20 06:44:53;;;;;;;;;31.25;24.25;;;;;21.55;100.00;101511.09;4925659;28;45296;-85
2022/07/20 06:47:18;;;;;;;;;24.25;23.25;;;;;21.51;100.00;101496.19;4926030;28;44798;-86
2022/07/20 06:49:44;;;;;;;;;25.50;23.75;;;;;21.49;100.00;101472.03;4928837;28;45225;-85
2022/07/20 06:52:10;;;;;;;;;23.75;23.75;;;;;21.50;100.00;101476.41;4927011;28;44721;-85
2022/07/20 06:54:35;;;;;;;;;23.25;23.25;;;;;21.52;100.00;101479.84;4925619;28;45196;-85
2022/07/20 06:57:06;;;;;;;;;22.50;21.00;;;;;21.52;100.00;101471.72;4924427;28;44873;-86
2022/07/20 06:59:32;;;;;;;;;19.00;19.00;;;;;21.50;100.00;101476.41;4938984;28;46752;-86
2022/07/20 07:01:58;;;;;;;;;22.50;19.75;;;;;21.47;100.00;101479.44;4924441;28;44808;-87
2022/07/20 07:04:23;;;;;;;;;22.75;20.00;;;;;21.43;100.00;101467.25;4923698;28;44835;-86
2022/07/20 07:06:49;;;;;;;;;25.00;21.50;;;;;21.44;100.00;101452.72;4924861;28;45455;-86
2022/07/20 07:09:14;;;;;;;;;26.25;20.75;;;;;21.36;100.00;101447.22;4927941;28;45487;-87
2022/07/20 07:11:40;;;;;;;;;20.50;17.00;;;;;21.29;100.00;101446.13;4940277;28;44833;-87
2022/07/20 07:14:05;;;;;;;;;25.25;21.50;;;;;21.23;100.00;101444.06;4925555;28;44808;-85
2022/07/20 07:16:31;;;;;;;;;23.00;21.00;;;;;21.15;100.00;101452.94;4926268;28;44785;-87
2022/07/20 07:18:57;;;;;;;;;25.75;21.25;;;;;21.06;100.00;101451.16;4927642;28;45078;-86
2022/07/20 07:21:22;;;;;;;;;23.50;16.50;;;;;20.92;100.00;101444.41;4928665;28;44699;-87
2022/07/20 07:23:49;;;;;;;;;23.25;18.50;;;;;20.86;100.00;101441.47;4925344;28;45493;-86
2022/07/20 07:26:19;;;;;;;;;27.50;22.75;;;;;20.81;100.00;101417.63;4922029;28;44927;-86
2022/07/20 07:28:45;;;;;;;;;26.50;21.25;;;;;20.76;100.00;101403.75;4937393;28;46780;-86
2022/07/20 07:31:11;;;;;;;;;29.25;25.00;;;;;20.75;100.00;101447.97;4922246;28;45220;-86
2022/07/20 07:33:36;;;;;;;;;28.75;24.50;;;;;20.67;100.00;101483.81;4921834;28;44834;-86
2022/07/20 07:36:03;;;;;;;;;23.75;21.25;;;;;20.62;100.00;101456.41;4920478;28;45440;-86
2022/07/20 07:38:28;;;;;;;;;22.25;20.50;;;;;20.65;100.00;101464.22;4920553;28;45538;-86
2022/07/20 07:40:54;;;;;;;;;21.75;21.00;;;;;20.70;100.00;101470.00;4922126;28;45247;-86
2022/07/20 07:43:19;;;;;;;;;23.50;19.50;;;;;20.77;100.00;101476.50;4922239;28;45379;-86
2022/07/20 07:45:45;;;;;;;;;22.50;18.00;;;;;20.84;100.00;101471.34;4920510;28;44891;-85
2022/07/20 07:48:10;;;;;;;;;23.25;21.75;;;;;20.96;100.00;101474.69;4921572;28;45387;-85
2022/07/20 07:50:37;;;;;;;;;21.50;20.00;;;;;21.08;100.00;101478.88;4924919;28;45335;-86
2022/07/20 07:53:05;;;;;;;;;20.00;19.00;;;;;21.23;100.00;101481.91;4929032;28;44750;-85
2022/07/20 07:55:31;;;;;;;;;18.25;18.25;;;;;21.33;100.00;101493.50;4933724;28;44788;-85
2022/07/20 07:57:56;;;;;;;;;22.25;20.50;;;;;21.41;100.00;101496.28;4925207;28;45199;-85
2022/07/20 08:00:22;;;;;;;;;22.75;20.75;;;;;21.39;100.00;101498.28;4926091;28;44854;-85
2022/07/20 08:02:48;;;;;;;;;24.00;21.50;;;;;21.40;100.00;101504.56;4923448;28;44905;-85
2022/07/20 08:05:14;;;;;;;;;24.50;22.50;;;;;21.43;100.00;101518.63;4923899;28;45673;-85
2022/07/20 08:07:40;;;;;;;;;22.75;21.25;;;;;21.55;100.00;101516.50;4925124;28;45196;-85
2022/07/20 08:10:07;;;;;;;;;22.50;20.75;;;;;21.75;100.00;101509.91;4905982;29;45400;-85
2022/07/20 08:12:33;;;;;;;;;22.75;22.75;;;;;22.02;100.00;101517.06;4905772;29;44762;-85
2022/07/20 08:14:59;;;;;;;;;22.25;19.00;;;;;22.25;100.00;101517.44;4905027;29;44897;-86
2022/07/20 08:17:24;;;;;;;;;24.00;19.00;;;;;22.35;100.00;101508.34;4903943;29;45178;-86
2022/07/20 08:19:50;;;;;;;;;27.75;24.00;;;;;22.40;100.00;101500.59;4902857;29;44785;-85
2022/07/20 08:22:15;;;;;;;;;22.25;21.00;;;;;22.49;100.00;101503.19;4902596;29;45147;-85
2022/07/20 08:24:40;;;;;;;;;27.00;23.50;;;;;22.45;100.00;101503.66;4904362;29;44730;-85
2022/07/20 08:27:06;;;;;;;;;27.75;24.00;;;;;22.45;100.00;101498.25;4905093;29;45157;-85
2022/07/20 08:29:31;;;;;;;;;23.50;20.50;;;;;22.47;100.00;101501.63;4907396;29;44773;-84
2022/07/20 08:31:57;;;;;;;;;20.75;20.75;;;;;22.40;100.00;101496.03;4907334;29;45240;-83
2022/07/20 08:34:22;;;;;;;;;24.75;22.75;;;;;22.42;100.00;101499.41;4907849;29;45388;-84
2022/07/20 08:36:48;;;;;;;;;25.75;21.75;;;;;22.34;100.00;101507.50;4905537;29;44913;-84
2022/07/20 08:39:28;;;;;;;;;27.00;24.50;;;;;22.37;100.00;101515.28;4903637;29;45392;-84
2022/07/20 08:41:54;;;;;;;;;23.00;20.50;;;;;22.41;100.00;101505.00;4903074;29;45427;-84
2022/07/20 08:44:22;;;;;;;;;23.25;20.00;;;;;22.51;100.00;101503.00;4901394;29;44963;-84
2022/07/20 08:46:53;;;;;;;;;21.50;21.50;;;;;22.60;100.00;101512.03;4901364;29;45225;-84
2022/07/20 08:49:19;;;;;;;;;25.75;22.00;;;;;22.71;100.00;101520.69;4901771;29;44909;-84
2022/07/20 08:51:50;;;;;;;;;24.00;23.00;;;;;22.78;100.00;101510.09;4901624;29;44693;-84
2022/07/20 08:54:16;;;;;;;;;24.50;23.75;;;;;22.84;100.00;101504.84;4902262;29;45526;-84
2022/07/20 08:56:42;;;;;;;;;20.75;19.00;;;;;22.96;100.00;101508.13;4901756;29;45431;-84
2022/07/20 08:59:07;;;;;;;;;24.25;23.75;;;;;22.92;100.00;101500.47;4901591;29;45013;-85
2022/07/20 09:01:56;;;;;;;;;29.00;24.75;;;;;23.16;100.00;101505.13;4902023;29;44729;-84
2022/07/20 09:04:22;;;;;;;;;16.75;16.00;;;;;23.23;100.00;101492.63;4890024;29;45292;-84
2022/07/20 09:07:17;;;;;;;;;24.25;20.50;;;;;23.26;100.00;101489.59;4911118;29;44993;-84
2022/07/20 09:10:01;;;;;;;;;21.75;19.75;;;;;23.34;100.00;101500.41;4922150;28;44821;-84
2022/07/20 09:12:26;;;;;;;;;17.75;16.25;;;;;23.48;100.00;101490.78;4921931;28;44614;-84
2022/07/20 09:14:52;;;;;;;;;24.25;20.50;;;;;23.56;100.00;101475.34;4924431;28;45164;-84
2022/07/20 09:17:23;;;;;;;;;20.50;20.50;;;;;23.56;100.00;101477.22;4924878;28;46156;-84
2022/07/20 09:20:07;;;;;;;;;21.75;20.50;;;;;23.20;100.00;101465.81;4919990;28;45577;-84
2022/07/20 09:22:36;;;;;;;;;24.50;20.50;;;;;22.96;100.00;101477.47;4921249;28;44805;-84
2022/07/20 09:25:15;;;;;;;;;22.00;19.00;;;;;22.80;100.00;101476.38;4921786;28;45235;-84
2022/07/20 09:27:42;;;;;;;;;21.75;18.75;;;;;22.84;100.00;101487.75;4922834;28;45180;-84
2022/07/20 09:30:22;;;;;;;;;22.75;19.75;;;;;22.73;100.00;101494.31;4924069;28;45391;-84
2022/07/20 09:33:03;;;;;;;;;16.50;16.00;;;;;22.56;100.00;101497.97;4924500;28;44740;-84
2022/07/20 09:35:35;;;;;;;;;18.25;18.25;;;;;22.51;100.00;101503.00;4927638;28;44922;-89
2022/07/20 09:38:08;;;;;;;;;19.75;18.50;;;;;22.60;100.00;101498.50;4925446;28;46663;-90
2022/07/20 09:40:45;;;;;;;;;18.25;17.00;;;;;22.12;100.00;101484.53;4942053;28;44657;-89
2022/07/20 09:43:40;;;;;;;;;22.50;17.50;;;;;22.20;100.00;101508.94;4930578;28;44759;-89
2022/07/20 09:46:20;;;;;;;;;18.00;18.00;;;;;22.22;100.00;101519.59;4938146;28;44827;-89
2022/07/20 09:48:48;;;;;;;;;19.25;17.00;;;;;22.15;100.00;101526.69;4945347;28;45016;-90
2022/07/20 09:52:04;;;;;;;;;16.00;12.60;;;;;21.89;100.00;101532.00;4949354;28;44924;-91
2022/07/20 09:55:03;;;;;;;;;14.60;14.60;;;;;21.75;100.00;101536.13;4935550;28;44778;-91
2022/07/20 09:57:45;;;;;;;;;15.00;13.00;;;;;21.66;100.00;101545.16;4936471;28;44824;-90
2022/07/20 10:00:33;;;;;;;;;11.40;11.40;;;;;21.54;100.00;101547.28;4915119;28;45123;-92
2022/07/20 10:03:15;;;;;;;;;14.60;12.40;;;;;21.43;100.00;101545.66;4926750;28;44951;-91
2022/07/20 10:06:16;;;;;;;;;14.60;10.80;;;;;21.44;100.00;101555.47;4928557;28;44797;-91
2022/07/20 10:09:00;;;;;;;;;17.00;11.25;;;;;21.45;100.00;101540.06;4934984;28;44827;-90
2022/07/20 10:11:26;;;;;;;;;10.25;7.50;;;;;21.59;100.00;101533.28;4931693;28;45434;-90
2022/07/20 10:13:54;;;;;;;;;12.20;12.20;;;;;21.84;100.00;101543.31;4933933;28;44619;-92
2022/07/20 10:16:48;;;;;;;;;10.60;10.60;;;;;22.05;100.00;101532.16;4935411;28;44777;-91
2022/07/20 10:19:16;;;;;;;;;13.00;12.25;;;;;22.27;100.00;101533.50;4938992;28;44937;-91
2022/07/20 10:21:43;;;;;;;;;11.00;9.50;;;;;22.42;100.00;101542.72;4945502;28;45359;-91
2022/07/20 10:24:25;;;;;;;;;10.20;10.20;;;;;22.37;100.00;101555.06;4949052;28;44706;-90
2022/07/20 10:27:26;;;;;;;;;12.40;12.40;;;;;22.15;100.00;101561.88;4958602;28;44733;-89
2022/07/20 10:29:57;;;;;;;;;11.25;7.75;;;;;22.13;100.00;101547.63;4925031;28;44944;-90
2022/07/20 10:32:25;;;;;;;;;11.50;11.25;;;;;22.17;100.00;101546.31;4946974;28;46780;-92
2022/07/20 10:34:58;;;;;;;;;10.60;8.40;;;;;22.26;100.00;101542.66;4945560;28;44729;-90
2022/07/20 10:37:26;;;;;;;;;10.80;9.40;;;;;22.30;100.00;101531.34;4930966;28;44812;-92
2022/07/20 10:40:15;;;;;;;;;11.00;9.50;;;;;22.34;100.00;101518.34;4928070;28;44695;-91
2022/07/20 10:42:48;;;;;;;;;7.20;7.20;;;;;22.37;100.00;101528.81;4927402;28;45102;-91
2022/07/20 10:45:19;;;;;;;;;8.00;7.80;;;;;22.32;100.00;101533.88;4927131;28;44663;-92
2022/07/20 10:48:04;;;;;;;;;11.40;10.20;;;;;22.31;100.00;101524.06;4923670;28;44678;-91
2022/07/20 10:50:43;;;;;;;;;11.25;11.25;;;;;22.29;100.00;101534.22;4939554;28;45192;-90
2022/07/20 10:53:15;;;;;;;;;18.00;12.25;;;;;22.26;100.00;101527.25;4938528;28;46729;-91
2022/07/20 10:56:05;;;;;;;;;12.80;11.40;;;;;22.14;100.00;101525.81;4932749;28;44618;-91
2022/07/20 10:58:33;;;;;;;;;16.60;10.80;;;;;22.08;100.00;101540.78;4947132;28;44796;-85
2022/07/20 11:01:12;;;;;;;;;9.50;9.25;;;;;22.03;100.00;101544.97;4929597;28;45305;-86
2022/07/20 11:03:43;;;;;;;;;11.25;10.50;;;;;21.94;100.00;101554.88;4926752;28;44997;-86
2022/07/20 11:06:21;;;;;;;;;12.60;11.80;;;;;21.83;100.00;101554.28;4941629;28;44732;-86
2022/07/20 11:08:52;;;;;;;;;10.40;8.00;;;;;21.79;100.00;101553.75;4962766;28;44761;-86
2022/07/20 11:11:26;;;;;;;;;10.75;10.75;;;;;21.75;100.00;101553.19;4926783;28;44756;-86
2022/07/20 11:13:52;;;;;;;;;9.00;6.40;;;;;21.76;100.00;101548.66;4934458;28;45120;-86
2022/07/20 11:16:23;;;;;;;;;12.00;11.50;;;;;21.74;100.00;101548.81;4961953;28;44799;-86
2022/07/20 11:18:50;;;;;;;;;14.20;10.40;;;;;21.60;100.00;101540.38;4944521;28;44729;-86